sensor_id;sensor_type;location;lat;lon;timestamp;P1;durP1;ratioP1;P2;durP2;ratioP2
78209;SDS011;67485;48.816;9.930;2023-07-31T00:00:24;3.83;;;1.93;;
78209;SDS011;67485;48.816;9.930;2023-07-31T00:02:51;4.00;;;1.50;;
78209;SDS011;67485;48.816;9.930;2023-07-31T00:05:17;6.80;;;1.88;;
78209;SDS011;67485;48.816;9.930;2023-07-31T00:07:43;3.93;;;1.60;;
78209;SDS011;67485;48.816;9.930;2023-07-31T00:10:08;7.55;;;1.98;;
78209;SDS011;67485;48.816;9.930;2023-07-31T00:12:34;3.40;;;1.67;;
78209;SDS011;67485;48.816;9.930;2023-07-31T00:15:00;3.20;;;1.67;;
78209;SDS011;67485;48.816;9.930;2023-07-31T00:17:27;5.35;;;1.50;;
78209;SDS011;67485;48.816;9.930;2023-07-31T00:19:53;4.23;;;1.67;;
78209;SDS011;67485;48.816;9.930;2023-07-31T00:22:18;6.32;;;1.63;;
78209;SDS011;67485;48.816;9.930;2023-07-31T00:24:44;4.60;;;1.57;;
78209;SDS011;67485;48.816;9.930;2023-07-31T00:27:09;7.47;;;1.93;;
78209;SDS011;67485;48.816;9.930;2023-07-31T00:29:35;3.97;;;1.48;;
78209;SDS011;67485;48.816;9.930;2023-07-31T00:32:03;6.93;;;1.73;;
78209;SDS011;67485;48.816;9.930;2023-07-31T00:34:29;3.93;;;2.00;;
78209;SDS011;67485;48.816;9.930;2023-07-31T00:36:55;3.13;;;1.40;;
78209;SDS011;67485;48.816;9.930;2023-07-31T00:39:20;3.47;;;1.40;;
78209;SDS011;67485;48.816;9.930;2023-07-31T00:41:46;6.20;;;1.55;;
78209;SDS011;67485;48.816;9.930;2023-07-31T00:44:12;3.47;;;1.53;;
78209;SDS011;67485;48.816;9.930;2023-07-31T00:46:37;4.22;;;1.67;;
78209;SDS011;67485;48.816;9.930;2023-07-31T00:49:03;5.17;;;1.83;;
78209;SDS011;67485;48.816;9.930;2023-07-31T00:51:30;4.72;;;1.30;;
78209;SDS011;67485;48.816;9.930;2023-07-31T00:53:56;4.50;;;1.80;;
78209;SDS011;67485;48.816;9.930;2023-07-31T00:56:23;3.50;;;1.40;;
78209;SDS011;67485;48.816;9.930;2023-07-31T00:58:50;4.82;;;1.70;;
78209;SDS011;67485;48.816;9.930;2023-07-31T01:01:16;5.65;;;1.65;;
78209;SDS011;67485;48.816;9.930;2023-07-31T01:03:41;5.20;;;1.77;;
78209;SDS011;67485;48.816;9.930;2023-07-31T01:06:15;5.75;;;1.70;;
78209;SDS011;67485;48.816;9.930;2023-07-31T01:09:01;4.93;;;1.80;;
78209;SDS011;67485;48.816;9.930;2023-07-31T01:11:41;5.57;;;1.20;;
78209;SDS011;67485;48.816;9.930;2023-07-31T01:14:11;3.75;;;1.58;;
78209;SDS011;67485;48.816;9.930;2023-07-31T01:16:37;5.60;;;1.50;;
78209;SDS011;67485;48.816;9.930;2023-07-31T01:19:04;3.40;;;1.20;;
78209;SDS011;67485;48.816;9.930;2023-07-31T01:24:28;4.78;;;1.42;;
78209;SDS011;67485;48.816;9.930;2023-07-31T01:27:05;4.32;;;1.50;;
78209;SDS011;67485;48.816;9.930;2023-07-31T01:29:40;6.53;;;1.60;;
78209;SDS011;67485;48.816;9.930;2023-07-31T01:32:12;4.27;;;1.20;;
78209;SDS011;67485;48.816;9.930;2023-07-31T01:34:38;2.47;;;1.27;;
78209;SDS011;67485;48.816;9.930;2023-07-31T01:37:05;3.63;;;1.42;;
78209;SDS011;67485;48.816;9.930;2023-07-31T01:39:31;4.20;;;1.37;;
78209;SDS011;67485;48.816;9.930;2023-07-31T01:41:56;5.30;;;1.50;;
78209;SDS011;67485;48.816;9.930;2023-07-31T01:44:22;4.57;;;1.77;;
78209;SDS011;67485;48.816;9.930;2023-07-31T01:46:48;5.15;;;1.83;;
78209;SDS011;67485;48.816;9.930;2023-07-31T01:49:13;4.33;;;1.70;;
78209;SDS011;67485;48.816;9.930;2023-07-31T01:51:39;6.35;;;1.90;;
78209;SDS011;67485;48.816;9.930;2023-07-31T01:54:06;5.23;;;1.70;;
78209;SDS011;67485;48.816;9.930;2023-07-31T01:56:32;4.55;;;1.60;;
78209;SDS011;67485;48.816;9.930;2023-07-31T01:58:58;5.22;;;1.92;;
78209;SDS011;67485;48.816;9.930;2023-07-31T02:01:23;3.77;;;1.50;;
78209;SDS011;67485;48.816;9.930;2023-07-31T02:03:50;4.38;;;1.70;;
78209;SDS011;67485;48.816;9.930;2023-07-31T02:06:15;3.37;;;1.60;;
78209;SDS011;67485;48.816;9.930;2023-07-31T02:08:42;5.80;;;1.50;;
78209;SDS011;67485;48.816;9.930;2023-07-31T02:11:07;3.80;;;1.53;;
78209;SDS011;67485;48.816;9.930;2023-07-31T02:13:33;3.20;;;1.50;;
78209;SDS011;67485;48.816;9.930;2023-07-31T02:15:58;4.93;;;1.80;;
78209;SDS011;67485;48.816;9.930;2023-07-31T02:18:24;2.75;;;1.60;;
78209;SDS011;67485;48.816;9.930;2023-07-31T02:20:50;2.78;;;1.40;;
78209;SDS011;67485;48.816;9.930;2023-07-31T02:23:17;5.50;;;1.47;;
78209;SDS011;67485;48.816;9.930;2023-07-31T02:25:45;4.25;;;1.83;;
78209;SDS011;67485;48.816;9.930;2023-07-31T02:28:11;4.78;;;1.60;;
78209;SDS011;67485;48.816;9.930;2023-07-31T02:30:37;6.43;;;1.90;;
78209;SDS011;67485;48.816;9.930;2023-07-31T02:33:03;6.22;;;1.70;;
78209;SDS011;67485;48.816;9.930;2023-07-31T02:35:29;4.57;;;1.52;;
78209;SDS011;67485;48.816;9.930;2023-07-31T02:37:55;3.43;;;1.47;;
78209;SDS011;67485;48.816;9.930;2023-07-31T02:40:21;4.57;;;1.70;;
78209;SDS011;67485;48.816;9.930;2023-07-31T02:42:47;4.80;;;1.80;;
78209;SDS011;67485;48.816;9.930;2023-07-31T02:45:12;5.13;;;2.00;;
78209;SDS011;67485;48.816;9.930;2023-07-31T02:47:38;4.63;;;1.83;;
78209;SDS011;67485;48.816;9.930;2023-07-31T02:50:03;3.03;;;1.47;;
78209;SDS011;67485;48.816;9.930;2023-07-31T02:52:30;3.95;;;1.30;;
78209;SDS011;67485;48.816;9.930;2023-07-31T02:54:55;3.65;;;1.67;;
78209;SDS011;67485;48.816;9.930;2023-07-31T02:57:21;3.57;;;1.20;;
78209;SDS011;67485;48.816;9.930;2023-07-31T02:59:47;4.00;;;1.95;;
78209;SDS011;67485;48.816;9.930;2023-07-31T03:02:13;3.17;;;1.60;;
78209;SDS011;67485;48.816;9.930;2023-07-31T03:04:39;3.57;;;1.50;;
78209;SDS011;67485;48.816;9.930;2023-07-31T03:07:05;3.78;;;1.58;;
78209;SDS011;67485;48.816;9.930;2023-07-31T03:09:30;5.13;;;1.90;;
78209;SDS011;67485;48.816;9.930;2023-07-31T03:11:56;4.60;;;1.65;;
78209;SDS011;67485;48.816;9.930;2023-07-31T03:14:22;3.77;;;1.60;;
78209;SDS011;67485;48.816;9.930;2023-07-31T03:16:47;5.32;;;1.60;;
78209;SDS011;67485;48.816;9.930;2023-07-31T03:19:14;2.43;;;1.20;;
78209;SDS011;67485;48.816;9.930;2023-07-31T03:21:39;4.45;;;1.77;;
78209;SDS011;67485;48.816;9.930;2023-07-31T03:24:05;2.70;;;1.70;;
78209;SDS011;67485;48.816;9.930;2023-07-31T03:26:31;2.70;;;1.40;;
78209;SDS011;67485;48.816;9.930;2023-07-31T03:28:57;3.80;;;1.65;;
78209;SDS011;67485;48.816;9.930;2023-07-31T03:31:22;5.87;;;1.67;;
78209;SDS011;67485;48.816;9.930;2023-07-31T03:33:48;4.10;;;1.37;;
78209;SDS011;67485;48.816;9.930;2023-07-31T03:36:13;6.60;;;1.20;;
78209;SDS011;67485;48.816;9.930;2023-07-31T03:38:39;5.40;;;1.40;;
78209;SDS011;67485;48.816;9.930;2023-07-31T03:41:06;4.53;;;1.35;;
78209;SDS011;67485;48.816;9.930;2023-07-31T03:43:32;3.25;;;1.60;;
78209;SDS011;67485;48.816;9.930;2023-07-31T03:45:59;2.77;;;1.50;;
78209;SDS011;67485;48.816;9.930;2023-07-31T03:48:25;3.97;;;1.50;;
78209;SDS011;67485;48.816;9.930;2023-07-31T03:50:51;4.38;;;1.50;;
78209;SDS011;67485;48.816;9.930;2023-07-31T03:53:17;4.50;;;1.33;;
78209;SDS011;67485;48.816;9.930;2023-07-31T03:55:42;5.47;;;1.40;;
78209;SDS011;67485;48.816;9.930;2023-07-31T03:58:08;4.83;;;1.40;;
78209;SDS011;67485;48.816;9.930;2023-07-31T04:00:34;4.40;;;1.42;;
78209;SDS011;67485;48.816;9.930;2023-07-31T04:02:59;3.93;;;1.87;;
78209;SDS011;67485;48.816;9.930;2023-07-31T04:05:25;3.33;;;1.40;;
78209;SDS011;67485;48.816;9.930;2023-07-31T04:07:51;5.10;;;1.90;;
78209;SDS011;67485;48.816;9.930;2023-07-31T04:10:16;4.87;;;1.67;;
78209;SDS011;67485;48.816;9.930;2023-07-31T04:12:42;5.73;;;1.50;;
78209;SDS011;67485;48.816;9.930;2023-07-31T04:15:08;4.40;;;1.90;;
78209;SDS011;67485;48.816;9.930;2023-07-31T04:17:34;6.53;;;2.53;;
78209;SDS011;67485;48.816;9.930;2023-07-31T04:19:59;3.22;;;1.40;;
78209;SDS011;67485;48.816;9.930;2023-07-31T04:22:25;4.00;;;1.50;;
78209;SDS011;67485;48.816;9.930;2023-07-31T04:24:51;2.65;;;1.48;;
78209;SDS011;67485;48.816;9.930;2023-07-31T04:27:16;3.97;;;1.40;;
78209;SDS011;67485;48.816;9.930;2023-07-31T04:29:42;4.10;;;1.40;;
78209;SDS011;67485;48.816;9.930;2023-07-31T04:32:09;2.58;;;1.60;;
78209;SDS011;67485;48.816;9.930;2023-07-31T04:34:35;3.42;;;1.50;;
78209;SDS011;67485;48.816;9.930;2023-07-31T04:37:00;5.07;;;1.53;;
78209;SDS011;67485;48.816;9.930;2023-07-31T04:39:26;4.17;;;1.50;;
78209;SDS011;67485;48.816;9.930;2023-07-31T04:41:52;2.97;;;1.40;;
78209;SDS011;67485;48.816;9.930;2023-07-31T04:44:17;3.60;;;1.70;;
78209;SDS011;67485;48.816;9.930;2023-07-31T04:46:43;3.53;;;1.50;;
78209;SDS011;67485;48.816;9.930;2023-07-31T04:49:08;3.40;;;1.20;;
78209;SDS011;67485;48.816;9.930;2023-07-31T04:51:34;2.55;;;1.45;;
78209;SDS011;67485;48.816;9.930;2023-07-31T04:54:00;2.20;;;1.30;;
78209;SDS011;67485;48.816;9.930;2023-07-31T04:56:25;4.53;;;1.53;;
78209;SDS011;67485;48.816;9.930;2023-07-31T04:58:51;5.38;;;1.45;;
78209;SDS011;67485;48.816;9.930;2023-07-31T05:01:16;3.27;;;1.70;;
78209;SDS011;67485;48.816;9.930;2023-07-31T05:03:42;4.03;;;1.55;;
78209;SDS011;67485;48.816;9.930;2023-07-31T05:06:08;4.40;;;1.40;;
78209;SDS011;67485;48.816;9.930;2023-07-31T05:08:33;4.82;;;1.90;;
78209;SDS011;67485;48.816;9.930;2023-07-31T05:10:59;6.53;;;1.70;;
78209;SDS011;67485;48.816;9.930;2023-07-31T05:13:25;5.50;;;2.10;;
78209;SDS011;67485;48.816;9.930;2023-07-31T05:15:50;6.93;;;2.15;;
78209;SDS011;67485;48.816;9.930;2023-07-31T05:18:16;3.20;;;1.57;;
78209;SDS011;67485;48.816;9.930;2023-07-31T05:20:41;3.67;;;1.58;;
78209;SDS011;67485;48.816;9.930;2023-07-31T05:23:07;3.60;;;1.40;;
78209;SDS011;67485;48.816;9.930;2023-07-31T05:25:33;3.63;;;1.90;;
78209;SDS011;67485;48.816;9.930;2023-07-31T05:27:58;3.97;;;1.43;;
78209;SDS011;67485;48.816;9.930;2023-07-31T05:30:24;6.03;;;1.63;;
78209;SDS011;67485;48.816;9.930;2023-07-31T05:32:49;3.42;;;1.10;;
78209;SDS011;67485;48.816;9.930;2023-07-31T05:35:15;4.80;;;1.70;;
78209;SDS011;67485;48.816;9.930;2023-07-31T05:37:41;3.15;;;1.58;;
78209;SDS011;67485;48.816;9.930;2023-07-31T05:40:06;3.03;;;1.63;;
78209;SDS011;67485;48.816;9.930;2023-07-31T05:42:32;3.38;;;1.70;;
78209;SDS011;67485;48.816;9.930;2023-07-31T05:44:58;5.33;;;1.60;;
78209;SDS011;67485;48.816;9.930;2023-07-31T05:47:23;3.30;;;1.60;;
78209;SDS011;67485;48.816;9.930;2023-07-31T05:49:49;4.13;;;1.60;;
78209;SDS011;67485;48.816;9.930;2023-07-31T05:52:18;4.07;;;1.50;;
78209;SDS011;67485;48.816;9.930;2023-07-31T05:54:44;3.92;;;1.50;;
78209;SDS011;67485;48.816;9.930;2023-07-31T05:57:11;4.10;;;1.60;;
78209;SDS011;67485;48.816;9.930;2023-07-31T05:59:36;3.87;;;1.40;;
78209;SDS011;67485;48.816;9.930;2023-07-31T06:02:02;3.50;;;1.50;;
78209;SDS011;67485;48.816;9.930;2023-07-31T06:04:28;2.90;;;1.60;;
78209;SDS011;67485;48.816;9.930;2023-07-31T06:06:53;6.00;;;1.30;;
78209;SDS011;67485;48.816;9.930;2023-07-31T06:09:19;6.18;;;1.30;;
78209;SDS011;67485;48.816;9.930;2023-07-31T06:11:45;3.67;;;1.50;;
78209;SDS011;67485;48.816;9.930;2023-07-31T06:14:11;2.80;;;1.40;;
78209;SDS011;67485;48.816;9.930;2023-07-31T06:16:37;4.30;;;1.77;;
78209;SDS011;67485;48.816;9.930;2023-07-31T06:19:02;6.03;;;1.80;;
78209;SDS011;67485;48.816;9.930;2023-07-31T06:21:28;3.10;;;1.40;;
78209;SDS011;67485;48.816;9.930;2023-07-31T06:23:55;4.10;;;1.40;;
78209;SDS011;67485;48.816;9.930;2023-07-31T06:26:20;2.97;;;1.60;;
78209;SDS011;67485;48.816;9.930;2023-07-31T06:28:46;7.13;;;1.90;;
78209;SDS011;67485;48.816;9.930;2023-07-31T06:31:11;1.98;;;1.20;;
78209;SDS011;67485;48.816;9.930;2023-07-31T06:33:37;4.43;;;1.73;;
78209;SDS011;67485;48.816;9.930;2023-07-31T06:36:03;4.87;;;1.80;;
78209;SDS011;67485;48.816;9.930;2023-07-31T06:38:28;4.18;;;1.50;;
78209;SDS011;67485;48.816;9.930;2023-07-31T06:40:54;4.07;;;1.80;;
78209;SDS011;67485;48.816;9.930;2023-07-31T06:43:20;3.78;;;1.52;;
78209;SDS011;67485;48.816;9.930;2023-07-31T06:45:46;6.57;;;1.70;;
78209;SDS011;67485;48.816;9.930;2023-07-31T06:48:13;4.40;;;1.40;;
78209;SDS011;67485;48.816;9.930;2023-07-31T06:50:39;4.28;;;1.95;;
78209;SDS011;67485;48.816;9.930;2023-07-31T06:53:04;5.60;;;1.73;;
78209;SDS011;67485;48.816;9.930;2023-07-31T06:55:30;6.67;;;1.60;;
78209;SDS011;67485;48.816;9.930;2023-07-31T06:57:56;3.72;;;1.38;;
78209;SDS011;67485;48.816;9.930;2023-07-31T07:00:22;5.53;;;2.17;;
78209;SDS011;67485;48.816;9.930;2023-07-31T07:02:48;4.65;;;1.80;;
78209;SDS011;67485;48.816;9.930;2023-07-31T07:05:15;2.60;;;1.58;;
78209;SDS011;67485;48.816;9.930;2023-07-31T07:07:42;3.28;;;1.48;;
78209;SDS011;67485;48.816;9.930;2023-07-31T07:10:08;3.80;;;1.40;;
78209;SDS011;67485;48.816;9.930;2023-07-31T07:12:34;3.87;;;1.90;;
78209;SDS011;67485;48.816;9.930;2023-07-31T07:15:00;2.42;;;1.67;;
78209;SDS011;67485;48.816;9.930;2023-07-31T07:17:27;5.50;;;1.60;;
78209;SDS011;67485;48.816;9.930;2023-07-31T07:19:53;3.00;;;1.30;;
78209;SDS011;67485;48.816;9.930;2023-07-31T07:22:21;7.73;;;1.90;;
78209;SDS011;67485;48.816;9.930;2023-07-31T07:24:46;3.75;;;1.40;;
78209;SDS011;67485;48.816;9.930;2023-07-31T07:27:12;5.43;;;1.73;;
78209;SDS011;67485;48.816;9.930;2023-07-31T07:29:38;3.43;;;1.60;;
78209;SDS011;67485;48.816;9.930;2023-07-31T07:32:04;3.67;;;1.63;;
78209;SDS011;67485;48.816;9.930;2023-07-31T07:34:30;5.53;;;1.85;;
78209;SDS011;67485;48.816;9.930;2023-07-31T07:36:55;4.18;;;1.80;;
78209;SDS011;67485;48.816;9.930;2023-07-31T07:39:21;4.13;;;1.70;;
78209;SDS011;67485;48.816;9.930;2023-07-31T07:41:47;7.07;;;1.87;;
78209;SDS011;67485;48.816;9.930;2023-07-31T07:44:13;3.65;;;1.83;;
78209;SDS011;67485;48.816;9.930;2023-07-31T07:46:39;3.75;;;1.90;;
78209;SDS011;67485;48.816;9.930;2023-07-31T07:49:05;5.78;;;1.65;;
78209;SDS011;67485;48.816;9.930;2023-07-31T07:51:31;6.13;;;2.20;;
78209;SDS011;67485;48.816;9.930;2023-07-31T07:53:57;4.03;;;1.60;;
78209;SDS011;67485;48.816;9.930;2023-07-31T07:56:24;4.20;;;1.45;;
78209;SDS011;67485;48.816;9.930;2023-07-31T07:58:51;3.28;;;1.70;;
78209;SDS011;67485;48.816;9.930;2023-07-31T08:01:17;3.97;;;1.83;;
78209;SDS011;67485;48.816;9.930;2023-07-31T08:03:42;6.38;;;2.03;;
78209;SDS011;67485;48.816;9.930;2023-07-31T08:06:08;4.87;;;1.80;;
78209;SDS011;67485;48.816;9.930;2023-07-31T08:08:37;5.30;;;2.25;;
78209;SDS011;67485;48.816;9.930;2023-07-31T08:11:03;6.35;;;2.17;;
78209;SDS011;67485;48.816;9.930;2023-07-31T08:13:29;4.18;;;1.70;;
78209;SDS011;67485;48.816;9.930;2023-07-31T08:15:55;4.90;;;2.33;;
78209;SDS011;67485;48.816;9.930;2023-07-31T08:18:21;5.20;;;1.73;;
78209;SDS011;67485;48.816;9.930;2023-07-31T08:20:46;5.70;;;1.90;;
78209;SDS011;67485;48.816;9.930;2023-07-31T08:23:12;4.25;;;1.90;;
78209;SDS011;67485;48.816;9.930;2023-07-31T08:25:38;3.95;;;2.08;;
78209;SDS011;67485;48.816;9.930;2023-07-31T08:28:04;5.43;;;2.22;;
78209;SDS011;67485;48.816;9.930;2023-07-31T08:30:31;5.50;;;2.00;;
78209;SDS011;67485;48.816;9.930;2023-07-31T08:32:57;3.63;;;1.80;;
78209;SDS011;67485;48.816;9.930;2023-07-31T08:35:23;3.50;;;1.65;;
78209;SDS011;67485;48.816;9.930;2023-07-31T08:37:50;3.37;;;1.67;;
78209;SDS011;67485;48.816;9.930;2023-07-31T08:40:15;4.45;;;2.40;;
78209;SDS011;67485;48.816;9.930;2023-07-31T08:42:44;4.57;;;2.00;;
78209;SDS011;67485;48.816;9.930;2023-07-31T08:45:14;3.95;;;1.70;;
78209;SDS011;67485;48.816;9.930;2023-07-31T08:47:47;3.65;;;1.88;;
78209;SDS011;67485;48.816;9.930;2023-07-31T08:50:16;3.45;;;1.92;;
78209;SDS011;67485;48.816;9.930;2023-07-31T08:52:43;4.93;;;2.00;;
78209;SDS011;67485;48.816;9.930;2023-07-31T08:55:10;5.80;;;1.90;;
78209;SDS011;67485;48.816;9.930;2023-07-31T08:57:37;4.47;;;2.10;;
78209;SDS011;67485;48.816;9.930;2023-07-31T09:00:03;3.38;;;2.00;;
78209;SDS011;67485;48.816;9.930;2023-07-31T09:05:23;4.57;;;2.17;;
78209;SDS011;67485;48.816;9.930;2023-07-31T09:07:51;6.60;;;2.20;;
78209;SDS011;67485;48.816;9.930;2023-07-31T09:10:17;6.90;;;1.98;;
78209;SDS011;67485;48.816;9.930;2023-07-31T09:12:43;4.70;;;2.17;;
78209;SDS011;67485;48.816;9.930;2023-07-31T09:15:10;3.90;;;2.08;;
78209;SDS011;67485;48.816;9.930;2023-07-31T09:17:36;4.15;;;2.10;;
78209;SDS011;67485;48.816;9.930;2023-07-31T09:20:15;4.50;;;2.10;;
78209;SDS011;67485;48.816;9.930;2023-07-31T09:22:42;4.70;;;2.20;;
78209;SDS011;67485;48.816;9.930;2023-07-31T09:25:19;5.63;;;2.20;;
78209;SDS011;67485;48.816;9.930;2023-07-31T09:27:50;4.10;;;2.35;;
78209;SDS011;67485;48.816;9.930;2023-07-31T09:30:20;4.68;;;2.03;;
78209;SDS011;67485;48.816;9.930;2023-07-31T09:32:47;4.57;;;2.25;;
78209;SDS011;67485;48.816;9.930;2023-07-31T09:35:18;4.17;;;2.00;;
78209;SDS011;67485;48.816;9.930;2023-07-31T09:37:49;5.28;;;2.50;;
78209;SDS011;67485;48.816;9.930;2023-07-31T09:40:32;5.78;;;2.50;;
78209;SDS011;67485;48.816;9.930;2023-07-31T09:42:58;6.10;;;2.30;;
78209;SDS011;67485;48.816;9.930;2023-07-31T09:45:25;5.82;;;2.40;;
78209;SDS011;67485;48.816;9.930;2023-07-31T09:47:51;5.83;;;2.30;;
78209;SDS011;67485;48.816;9.930;2023-07-31T09:50:21;4.07;;;2.05;;
78209;SDS011;67485;48.816;9.930;2023-07-31T09:52:48;4.95;;;2.10;;
78209;SDS011;67485;48.816;9.930;2023-07-31T09:55:14;3.72;;;2.13;;
78209;SDS011;67485;48.816;9.930;2023-07-31T09:57:46;4.63;;;2.65;;
78209;SDS011;67485;48.816;9.930;2023-07-31T10:00:17;4.10;;;1.70;;
78209;SDS011;67485;48.816;9.930;2023-07-31T10:02:46;4.03;;;1.90;;
78209;SDS011;67485;48.816;9.930;2023-07-31T10:05:13;3.58;;;1.98;;
78209;SDS011;67485;48.816;9.930;2023-07-31T10:07:48;5.10;;;1.90;;
78209;SDS011;67485;48.816;9.930;2023-07-31T10:10:19;8.25;;;2.50;;
78209;SDS011;67485;48.816;9.930;2023-07-31T10:12:46;7.60;;;2.27;;
78209;SDS011;67485;48.816;9.930;2023-07-31T10:15:17;4.50;;;2.28;;
78209;SDS011;67485;48.816;9.930;2023-07-31T10:17:42;6.68;;;2.20;;
78209;SDS011;67485;48.816;9.930;2023-07-31T10:20:09;5.43;;;2.13;;
78209;SDS011;67485;48.816;9.930;2023-07-31T10:22:35;6.77;;;2.30;;
78209;SDS011;67485;48.816;9.930;2023-07-31T10:25:02;3.65;;;2.13;;
78209;SDS011;67485;48.816;9.930;2023-07-31T10:27:27;3.88;;;2.20;;
78209;SDS011;67485;48.816;9.930;2023-07-31T10:29:56;3.83;;;2.20;;
78209;SDS011;67485;48.816;9.930;2023-07-31T10:32:24;4.80;;;1.90;;
78209;SDS011;67485;48.816;9.930;2023-07-31T10:34:50;4.90;;;2.13;;
78209;SDS011;67485;48.816;9.930;2023-07-31T10:37:31;8.02;;;2.00;;
78209;SDS011;67485;48.816;9.930;2023-07-31T10:40:06;5.32;;;2.15;;
78209;SDS011;67485;48.816;9.930;2023-07-31T10:42:33;4.43;;;2.37;;
78209;SDS011;67485;48.816;9.930;2023-07-31T10:45:02;5.97;;;2.20;;
78209;SDS011;67485;48.816;9.930;2023-07-31T10:47:29;3.53;;;2.42;;
78209;SDS011;67485;48.816;9.930;2023-07-31T10:50:11;5.28;;;2.10;;
78209;SDS011;67485;48.816;9.930;2023-07-31T10:52:38;6.13;;;1.97;;
78209;SDS011;67485;48.816;9.930;2023-07-31T10:57:57;6.53;;;2.00;;
78209;SDS011;67485;48.816;9.930;2023-07-31T11:00:33;4.40;;;2.10;;
78209;SDS011;67485;48.816;9.930;2023-07-31T11:08:26;4.32;;;2.10;;
78209;SDS011;67485;48.816;9.930;2023-07-31T11:13:28;4.00;;;2.22;;
78209;SDS011;67485;48.816;9.930;2023-07-31T11:15:55;4.10;;;1.90;;
78209;SDS011;67485;48.816;9.930;2023-07-31T11:18:21;4.85;;;1.83;;
78209;SDS011;67485;48.816;9.930;2023-07-31T11:20:47;5.72;;;1.98;;
78209;SDS011;67485;48.816;9.930;2023-07-31T11:23:13;4.40;;;2.50;;
78209;SDS011;67485;48.816;9.930;2023-07-31T11:25:41;5.82;;;2.47;;
78209;SDS011;67485;48.816;9.930;2023-07-31T11:28:08;4.60;;;2.05;;
78209;SDS011;67485;48.816;9.930;2023-07-31T11:30:35;4.83;;;2.23;;
78209;SDS011;67485;48.816;9.930;2023-07-31T11:33:01;6.50;;;2.47;;
78209;SDS011;67485;48.816;9.930;2023-07-31T11:35:49;6.32;;;2.30;;
78209;SDS011;67485;48.816;9.930;2023-07-31T11:40:52;3.50;;;2.00;;
78209;SDS011;67485;48.816;9.930;2023-07-31T11:43:19;5.28;;;2.10;;
78209;SDS011;67485;48.816;9.930;2023-07-31T11:45:46;5.30;;;2.05;;
78209;SDS011;67485;48.816;9.930;2023-07-31T11:48:24;3.30;;;1.77;;
78209;SDS011;67485;48.816;9.930;2023-07-31T11:50:53;4.22;;;2.20;;
78209;SDS011;67485;48.816;9.930;2023-07-31T11:53:26;5.30;;;2.50;;
78209;SDS011;67485;48.816;9.930;2023-07-31T11:56:05;3.92;;;2.15;;
78209;SDS011;67485;48.816;9.930;2023-07-31T11:58:33;3.88;;;2.47;;
78209;SDS011;67485;48.816;9.930;2023-07-31T12:01:00;3.78;;;2.25;;
78209;SDS011;67485;48.816;9.930;2023-07-31T12:03:26;6.72;;;2.42;;
78209;SDS011;67485;48.816;9.930;2023-07-31T12:05:52;4.87;;;2.27;;
78209;SDS011;67485;48.816;9.930;2023-07-31T12:08:20;4.78;;;2.03;;
78209;SDS011;67485;48.816;9.930;2023-07-31T12:10:46;4.25;;;2.42;;
78209;SDS011;67485;48.816;9.930;2023-07-31T12:13:22;3.70;;;2.25;;
78209;SDS011;67485;48.816;9.930;2023-07-31T12:15:55;4.72;;;2.67;;
78209;SDS011;67485;48.816;9.930;2023-07-31T12:18:23;3.97;;;2.30;;
78209;SDS011;67485;48.816;9.930;2023-07-31T12:20:54;5.97;;;2.33;;
78209;SDS011;67485;48.816;9.930;2023-07-31T12:23:25;4.05;;;2.22;;
78209;SDS011;67485;48.816;9.930;2023-07-31T12:28:41;5.70;;;2.10;;
78209;SDS011;67485;48.816;9.930;2023-07-31T12:33:42;7.07;;;2.53;;
78209;SDS011;67485;48.816;9.930;2023-07-31T12:36:12;5.05;;;2.60;;
78209;SDS011;67485;48.816;9.930;2023-07-31T12:38:40;5.85;;;2.47;;
78209;SDS011;67485;48.816;9.930;2023-07-31T12:41:06;5.57;;;2.40;;
78209;SDS011;67485;48.816;9.930;2023-07-31T12:43:36;11.20;;;2.60;;
78209;SDS011;67485;48.816;9.930;2023-07-31T12:46:02;4.28;;;2.05;;
78209;SDS011;67485;48.816;9.930;2023-07-31T12:48:28;6.88;;;2.83;;
78209;SDS011;67485;48.816;9.930;2023-07-31T12:50:54;4.13;;;2.25;;
78209;SDS011;67485;48.816;9.930;2023-07-31T12:53:20;4.40;;;2.37;;
78209;SDS011;67485;48.816;9.930;2023-07-31T12:55:46;4.05;;;2.00;;
78209;SDS011;67485;48.816;9.930;2023-07-31T12:58:12;5.67;;;2.37;;
78209;SDS011;67485;48.816;9.930;2023-07-31T13:00:37;3.53;;;2.33;;
78209;SDS011;67485;48.816;9.930;2023-07-31T13:03:03;4.63;;;2.45;;
78209;SDS011;67485;48.816;9.930;2023-07-31T13:05:29;5.37;;;2.40;;
78209;SDS011;67485;48.816;9.930;2023-07-31T13:07:55;6.07;;;2.45;;
78209;SDS011;67485;48.816;9.930;2023-07-31T13:10:22;7.28;;;2.63;;
78209;SDS011;67485;48.816;9.930;2023-07-31T13:12:48;4.88;;;2.60;;
78209;SDS011;67485;48.816;9.930;2023-07-31T13:15:13;5.33;;;2.27;;
78209;SDS011;67485;48.816;9.930;2023-07-31T13:17:39;4.43;;;2.45;;
78209;SDS011;67485;48.816;9.930;2023-07-31T13:20:05;5.60;;;2.40;;
78209;SDS011;67485;48.816;9.930;2023-07-31T13:22:31;6.68;;;2.40;;
78209;SDS011;67485;48.816;9.930;2023-07-31T13:24:57;4.80;;;2.50;;
78209;SDS011;67485;48.816;9.930;2023-07-31T13:27:22;5.10;;;1.93;;
78209;SDS011;67485;48.816;9.930;2023-07-31T13:29:50;6.68;;;2.97;;
78209;SDS011;67485;48.816;9.930;2023-07-31T13:32:19;6.47;;;2.90;;
78209;SDS011;67485;48.816;9.930;2023-07-31T13:34:46;4.63;;;2.03;;
78209;SDS011;67485;48.816;9.930;2023-07-31T13:37:12;5.20;;;2.42;;
78209;SDS011;67485;48.816;9.930;2023-07-31T13:39:38;4.15;;;2.28;;
78209;SDS011;67485;48.816;9.930;2023-07-31T13:42:04;5.47;;;2.17;;
78209;SDS011;67485;48.816;9.930;2023-07-31T13:44:40;4.65;;;2.20;;
78209;SDS011;67485;48.816;9.930;2023-07-31T13:47:07;4.47;;;1.87;;
78209;SDS011;67485;48.816;9.930;2023-07-31T13:49:33;5.93;;;2.20;;
78209;SDS011;67485;48.816;9.930;2023-07-31T13:52:00;4.68;;;2.22;;
78209;SDS011;67485;48.816;9.930;2023-07-31T13:54:25;4.80;;;2.15;;
78209;SDS011;67485;48.816;9.930;2023-07-31T13:56:51;5.40;;;2.40;;
78209;SDS011;67485;48.816;9.930;2023-07-31T13:59:17;5.03;;;2.50;;
78209;SDS011;67485;48.816;9.930;2023-07-31T14:01:43;4.73;;;2.33;;
78209;SDS011;67485;48.816;9.930;2023-07-31T14:04:10;3.88;;;2.15;;
78209;SDS011;67485;48.816;9.930;2023-07-31T14:06:36;6.22;;;2.83;;
78209;SDS011;67485;48.816;9.930;2023-07-31T14:09:01;5.17;;;2.47;;
78209;SDS011;67485;48.816;9.930;2023-07-31T14:11:27;4.10;;;2.20;;
78209;SDS011;67485;48.816;9.930;2023-07-31T14:13:53;4.60;;;2.33;;
78209;SDS011;67485;48.816;9.930;2023-07-31T14:16:21;4.38;;;2.15;;
78209;SDS011;67485;48.816;9.930;2023-07-31T14:18:47;4.20;;;2.70;;
78209;SDS011;67485;48.816;9.930;2023-07-31T14:21:12;4.65;;;2.50;;
78209;SDS011;67485;48.816;9.930;2023-07-31T14:23:39;5.93;;;2.43;;
78209;SDS011;67485;48.816;9.930;2023-07-31T14:26:05;8.30;;;2.70;;
78209;SDS011;67485;48.816;9.930;2023-07-31T14:28:31;3.90;;;2.40;;
78209;SDS011;67485;48.816;9.930;2023-07-31T14:30:56;4.30;;;1.97;;
78209;SDS011;67485;48.816;9.930;2023-07-31T14:33:22;3.63;;;1.95;;
78209;SDS011;67485;48.816;9.930;2023-07-31T14:35:47;5.70;;;2.80;;
78209;SDS011;67485;48.816;9.930;2023-07-31T14:38:13;4.77;;;2.30;;
78209;SDS011;67485;48.816;9.930;2023-07-31T14:40:39;4.18;;;2.30;;
78209;SDS011;67485;48.816;9.930;2023-07-31T14:43:04;5.43;;;2.53;;
78209;SDS011;67485;48.816;9.930;2023-07-31T14:45:30;4.72;;;2.22;;
78209;SDS011;67485;48.816;9.930;2023-07-31T14:47:56;4.67;;;2.40;;
78209;SDS011;67485;48.816;9.930;2023-07-31T14:50:21;4.65;;;2.42;;
78209;SDS011;67485;48.816;9.930;2023-07-31T14:52:48;5.65;;;2.50;;
78209;SDS011;67485;48.816;9.930;2023-07-31T14:55:14;4.77;;;2.17;;
78209;SDS011;67485;48.816;9.930;2023-07-31T14:57:40;4.57;;;2.30;;
78209;SDS011;67485;48.816;9.930;2023-07-31T15:00:06;4.50;;;2.37;;
78209;SDS011;67485;48.816;9.930;2023-07-31T15:02:36;5.53;;;2.50;;
78209;SDS011;67485;48.816;9.930;2023-07-31T15:05:02;4.68;;;2.00;;
78209;SDS011;67485;48.816;9.930;2023-07-31T15:07:28;3.45;;;2.05;;
78209;SDS011;67485;48.816;9.930;2023-07-31T15:09:54;4.03;;;2.10;;